sensor_id;sensor_type;location;lat;lon;timestamp;pressure;altitude;pressure_sealevel;temperature;humidity
62708;BME280;48769;51.624;5.886;2024-01-27T00:02:25;103230.53;;;3.20;100.00
62708;BME280;48769;51.624;5.886;2024-01-27T00:04:51;103237.47;;;3.18;100.00
62708;BME280;48769;51.624;5.886;2024-01-27T00:07:16;103232.22;;;3.18;100.00
62708;BME280;48769;51.624;5.886;2024-01-27T00:09:42;103235.72;;;3.17;100.00
62708;BME280;48769;51.624;5.886;2024-01-27T00:12:08;103245.28;;;3.18;100.00
62708;BME280;48769;51.624;5.886;2024-01-27T00:14:33;103241.78;;;3.16;100.00
62708;BME280;48769;51.624;5.886;2024-01-27T00:16:59;103245.28;;;3.16;100.00
62708;BME280;48769;51.624;5.886;2024-01-27T00:19:24;103247.84;;;3.15;100.00
62708;BME280;48769;51.624;5.886;2024-01-27T00:21:49;103249.56;;;3.13;100.00
62708;BME280;48769;51.624;5.886;2024-01-27T00:24:15;103250.41;;;3.10;100.00
62708;BME280;48769;51.624;5.886;2024-01-27T00:26:41;103252.06;;;3.07;100.00
62708;BME280;48769;51.624;5.886;2024-01-27T00:29:06;103265.13;;;3.07;100.00
62708;BME280;48769;51.624;5.886;2024-01-27T00:31:31;103258.09;;;3.02;100.00
62708;BME280;48769;51.624;5.886;2024-01-27T00:33:57;103265.03;;;3.02;100.00
62708;BME280;48769;51.624;5.886;2024-01-27T00:36:22;103267.69;;;3.03;100.00
62708;BME280;48769;51.624;5.886;2024-01-27T00:38:47;103263.31;;;3.02;100.00
62708;BME280;48769;51.624;5.886;2024-01-27T00:41:19;103260.59;;;2.98;100.00
62708;BME280;48769;51.624;5.886;2024-01-27T00:43:45;103262.31;;;2.96;100.00
62708;BME280;48769;51.624;5.886;2024-01-27T00:46:10;103257.91;;;2.93;100.00
62708;BME280;48769;51.624;5.886;2024-01-27T00:48:36;103262.25;;;2.93;100.00
62708;BME280;48769;51.624;5.886;2024-01-27T00:51:01;103266.56;;;2.92;100.00
62708;BME280;48769;51.624;5.886;2024-01-27T00:53:26;103271.78;;;2.91;100.00
62708;BME280;48769;51.624;5.886;2024-01-27T00:55:52;103272.66;;;2.90;100.00
62708;BME280;48769;51.624;5.886;2024-01-27T00:58:17;103270.84;;;2.87;100.00
62708;BME280;48769;51.624;5.886;2024-01-27T01:00:42;103274.31;;;2.86;100.00
62708;BME280;48769;51.624;5.886;2024-01-27T01:03:08;103267.31;;;2.84;100.00
62708;BME280;48769;51.624;5.886;2024-01-27T01:05:33;103275.06;;;2.80;100.00
62708;BME280;48769;51.624;5.886;2024-01-27T01:07:58;103274.22;;;2.81;100.00
62708;BME280;48769;51.624;5.886;2024-01-27T01:10:24;103277.63;;;2.79;100.00
62708;BME280;48769;51.624;5.886;2024-01-27T01:12:49;103264.59;;;2.79;100.00
62708;BME280;48769;51.624;5.886;2024-01-27T01:15:14;103262.81;;;2.76;100.00
62708;BME280;48769;51.624;5.886;2024-01-27T01:17:40;103278.38;;;2.72;100.00
62708;BME280;48769;51.624;5.886;2024-01-27T01:20:06;103271.28;;;2.65;100.00
62708;BME280;48769;51.624;5.886;2024-01-27T01:22:31;103263.44;;;2.65;100.00
62708;BME280;48769;51.624;5.886;2024-01-27T01:24:56;103265.13;;;2.63;100.00
62708;BME280;48769;51.624;5.886;2024-01-27T01:27:22;103273.84;;;2.63;100.00
62708;BME280;48769;51.624;5.886;2024-01-27T01:29:47;103264.25;;;2.61;100.00
62708;BME280;48769;51.624;5.886;2024-01-27T01:32:12;103265.13;;;2.61;100.00
62708;BME280;48769;51.624;5.886;2024-01-27T01:34:38;103275.50;;;2.58;100.00
62708;BME280;48769;51.624;5.886;2024-01-27T01:37:03;103271.13;;;2.57;100.00
62708;BME280;48769;51.624;5.886;2024-01-27T01:39:28;103272.84;;;2.56;100.00
62708;BME280;48769;51.624;5.886;2024-01-27T01:41:54;103278.03;;;2.55;100.00
62708;BME280;48769;51.624;5.886;2024-01-27T01:44:19;103267.53;;;2.53;100.00
62708;BME280;48769;51.624;5.886;2024-01-27T01:46:45;103270.94;;;2.49;100.00
62708;BME280;48769;51.624;5.886;2024-01-27T01:49:10;103277.94;;;2.50;100.00
62708;BME280;48769;51.624;5.886;2024-01-27T01:51:35;103280.50;;;2.47;100.00
62708;BME280;48769;51.624;5.886;2024-01-27T01:54:01;103280.44;;;2.46;100.00
62708;BME280;48769;51.624;5.886;2024-01-27T01:56:27;103285.66;;;2.46;100.00
62708;BME280;48769;51.624;5.886;2024-01-27T01:58:54;103288.28;;;2.46;100.00
62708;BME280;48769;51.624;5.886;2024-01-27T02:01:19;103287.41;;;2.45;100.00
62708;BME280;48769;51.624;5.886;2024-01-27T02:03:56;103282.09;;;2.42;100.00
62708;BME280;48769;51.624;5.886;2024-01-27T02:06:22;103283.78;;;2.39;100.00
62708;BME280;48769;51.624;5.886;2024-01-27T02:08:47;103280.25;;;2.37;100.00
62708;BME280;48769;51.624;5.886;2024-01-27T02:11:13;103283.69;;;2.34;100.00
62708;BME280;48769;51.624;5.886;2024-01-27T02:13:38;103277.53;;;2.32;100.00
62708;BME280;48769;51.624;5.886;2024-01-27T02:16:04;103278.34;;;2.29;100.00
62708;BME280;48769;51.624;5.886;2024-01-27T02:18:29;103273.06;;;2.26;100.00
62708;BME280;48769;51.624;5.886;2024-01-27T02:20:55;103279.09;;;2.24;100.00
62708;BME280;48769;51.624;5.886;2024-01-27T02:23:20;103271.25;;;2.24;100.00
62708;BME280;48769;51.624;5.886;2024-01-27T02:25:45;103272.13;;;2.23;100.00
62708;BME280;48769;51.624;5.886;2024-01-27T02:28:10;103263.31;;;2.18;100.00
62708;BME280;48769;51.624;5.886;2024-01-27T02:30:37;103265.97;;;2.19;100.00
62708;BME280;48769;51.624;5.886;2024-01-27T02:33:03;103277.19;;;2.17;100.00
62708;BME280;48769;51.624;5.886;2024-01-27T02:35:29;103271.97;;;2.15;100.00
62708;BME280;48769;51.624;5.886;2024-01-27T02:37:54;103264.09;;;2.14;100.00
62708;BME280;48769;51.624;5.886;2024-01-27T02:40:20;103279.72;;;2.14;100.00
62708;BME280;48769;51.624;5.886;2024-01-27T02:42:45;103282.34;;;2.14;100.00
62708;BME280;48769;51.624;5.886;2024-01-27T02:45:11;103293.56;;;2.11;100.00
62708;BME280;48769;51.624;5.886;2024-01-27T02:47:37;103288.41;;;2.13;100.00
62708;BME280;48769;51.624;5.886;2024-01-27T02:50:02;103282.34;;;2.14;100.00
62708;BME280;48769;51.624;5.886;2024-01-27T02:52:31;103292.75;;;2.12;100.00
62708;BME280;48769;51.624;5.886;2024-01-27T02:54:56;103294.44;;;2.10;100.00
62708;BME280;48769;51.624;5.886;2024-01-27T02:57:22;103290.88;;;2.06;100.00
62708;BME280;48769;51.624;5.886;2024-01-27T02:59:48;103301.31;;;2.06;100.00
62708;BME280;48769;51.624;5.886;2024-01-27T03:02:13;103292.63;;;2.07;100.00
62708;BME280;48769;51.624;5.886;2024-01-27T03:04:39;103287.41;;;2.06;100.00
62708;BME280;48769;51.624;5.886;2024-01-27T03:07:07;103289.13;;;2.05;100.00
62708;BME280;48769;51.624;5.886;2024-01-27T03:09:33;103287.34;;;2.04;100.00
62708;BME280;48769;51.624;5.886;2024-01-27T03:12:01;103283.78;;;2.01;100.00
62708;BME280;48769;51.624;5.886;2024-01-27T03:14:29;103278.56;;;1.99;100.00
62708;BME280;48769;51.624;5.886;2024-01-27T03:16:54;103282.00;;;1.98;100.00
62708;BME280;48769;51.624;5.886;2024-01-27T03:19:20;103280.16;;;1.94;100.00
62708;BME280;48769;51.624;5.886;2024-01-27T03:21:46;103275.81;;;1.95;100.00
62708;BME280;48769;51.624;5.886;2024-01-27T03:24:11;103274.13;;;1.95;100.00
62708;BME280;48769;51.624;5.886;2024-01-27T03:26:37;103265.41;;;1.95;100.00
62708;BME280;48769;51.624;5.886;2024-01-27T03:29:02;103264.44;;;1.91;100.00
62708;BME280;48769;51.624;5.886;2024-01-27T03:31:31;103270.53;;;1.92;100.00
62708;BME280;48769;51.624;5.886;2024-01-27T03:33:58;103278.41;;;1.93;100.00
62708;BME280;48769;51.624;5.886;2024-01-27T03:36:24;103280.97;;;1.92;100.00
62708;BME280;48769;51.624;5.886;2024-01-27T03:38:49;103283.47;;;1.87;100.00
62708;BME280;48769;51.624;5.886;2024-01-27T03:41:14;103289.56;;;1.87;100.00
62708;BME280;48769;51.624;5.886;2024-01-27T03:43:40;103290.44;;;1.88;100.00
62708;BME280;48769;51.624;5.886;2024-01-27T03:46:05;103289.53;;;1.86;100.00
62708;BME280;48769;51.624;5.886;2024-01-27T03:48:30;103295.56;;;1.85;100.00
62708;BME280;48769;51.624;5.886;2024-01-27T03:50:56;103288.63;;;1.84;100.00
62708;BME280;48769;51.624;5.886;2024-01-27T03:53:21;103290.34;;;1.85;100.00
62708;BME280;48769;51.624;5.886;2024-01-27T03:55:46;103299.03;;;1.84;100.00
62708;BME280;48769;51.624;5.886;2024-01-27T03:58:12;103298.19;;;1.85;100.00
62708;BME280;48769;51.624;5.886;2024-01-27T04:00:37;103292.97;;;1.85;100.00
62708;BME280;48769;51.624;5.886;2024-01-27T04:03:03;103298.09;;;1.82;100.00
62708;BME280;48769;51.624;5.886;2024-01-27T04:05:29;103301.47;;;1.76;100.00
62708;BME280;48769;51.624;5.886;2024-01-27T04:07:55;103296.25;;;1.76;100.00
62708;BME280;48769;51.624;5.886;2024-01-27T04:10:21;103304.03;;;1.75;100.00
62708;BME280;48769;51.624;5.886;2024-01-27T04:12:46;103304.78;;;1.71;100.00
62708;BME280;48769;51.624;5.886;2024-01-27T04:15:12;103312.63;;;1.71;100.00
62708;BME280;48769;51.624;5.886;2024-01-27T04:17:37;103305.66;;;1.70;100.00
62708;BME280;48769;51.624;5.886;2024-01-27T04:20:03;103312.53;;;1.68;100.00
62708;BME280;48769;51.624;5.886;2024-01-27T04:22:30;103308.19;;;1.67;100.00
62708;BME280;48769;51.624;5.886;2024-01-27T04:24:55;103322.97;;;1.68;100.00
62708;BME280;48769;51.624;5.886;2024-01-27T04:27:21;103318.47;;;1.62;100.00
62708;BME280;48769;51.624;5.886;2024-01-27T04:29:46;103317.56;;;1.60;100.00
62708;BME280;48769;51.624;5.886;2024-01-27T04:32:12;103313.06;;;1.54;100.00
62708;BME280;48769;51.624;5.886;2024-01-27T04:34:38;103308.78;;;1.56;100.00
62708;BME280;48769;51.624;5.886;2024-01-27T04:37:03;103315.75;;;1.57;100.00
62708;BME280;48769;51.624;5.886;2024-01-27T04:39:29;103315.69;;;1.54;100.00
62708;BME280;48769;51.624;5.886;2024-01-27T04:41:55;103319.94;;;1.52;100.00
62708;BME280;48769;51.624;5.886;2024-01-27T04:44:20;103313.84;;;1.50;100.00
62708;BME280;48769;51.624;5.886;2024-01-27T04:46:45;103312.91;;;1.48;100.00
62708;BME280;48769;51.624;5.886;2024-01-27T04:49:11;103315.34;;;1.42;100.00
62708;BME280;48769;51.624;5.886;2024-01-27T04:51:36;103317.06;;;1.40;100.00
62708;BME280;48769;51.624;5.886;2024-01-27T04:54:02;103313.59;;;1.41;100.00
62708;BME280;48769;51.624;5.886;2024-01-27T04:56:27;103307.38;;;1.36;100.00
62708;BME280;48769;51.624;5.886;2024-01-27T04:58:53;103302.22;;;1.37;100.00
62708;BME280;48769;51.624;5.886;2024-01-27T05:01:18;103300.41;;;1.35;100.00
62708;BME280;48769;51.624;5.886;2024-01-27T05:03:43;103301.19;;;1.31;100.00
62708;BME280;48769;51.624;5.886;2024-01-27T05:06:10;103320.31;;;1.33;100.00
62708;BME280;48769;51.624;5.886;2024-01-27T05:08:35;103316.88;;;1.34;100.00
62708;BME280;48769;51.624;5.886;2024-01-27T05:11:01;103311.69;;;1.34;100.00
62708;BME280;48769;51.624;5.886;2024-01-27T05:13:26;103309.09;;;1.35;100.00
62708;BME280;48769;51.624;5.886;2024-01-27T05:15:52;103306.47;;;1.34;100.00
62708;BME280;48769;51.624;5.886;2024-01-27T05:18:17;103308.16;;;1.32;100.00
62708;BME280;48769;51.624;5.886;2024-01-27T05:20:42;103304.69;;;1.33;100.00
62708;BME280;48769;51.624;5.886;2024-01-27T05:23:08;103292.53;;;1.32;100.00
62708;BME280;48769;51.624;5.886;2024-01-27T05:25:33;103297.72;;;1.32;100.00
62708;BME280;48769;51.624;5.886;2024-01-27T05:27:58;103300.31;;;1.30;100.00
62708;BME280;48769;51.624;5.886;2024-01-27T05:30:24;103291.59;;;1.30;100.00
62708;BME280;48769;51.624;5.886;2024-01-27T05:32:49;103292.44;;;1.29;100.00
62708;BME280;48769;51.624;5.886;2024-01-27T05:35:14;103299.31;;;1.27;100.00
62708;BME280;48769;51.624;5.886;2024-01-27T05:37:40;103286.19;;;1.22;100.00
62708;BME280;48769;51.624;5.886;2024-01-27T05:40:06;103293.06;;;1.20;100.00
62708;BME280;48769;51.624;5.886;2024-01-27T05:42:32;103288.69;;;1.17;100.00
62708;BME280;48769;51.624;5.886;2024-01-27T05:44:58;103291.16;;;1.13;100.00
62708;BME280;48769;51.624;5.886;2024-01-27T05:47:23;103280.72;;;1.11;100.00
62708;BME280;48769;51.624;5.886;2024-01-27T05:49:48;103290.25;;;1.11;100.00
62708;BME280;48769;51.624;5.886;2024-01-27T05:52:14;103292.03;;;1.13;100.00
62708;BME280;48769;51.624;5.886;2024-01-27T05:54:40;103284.19;;;1.12;100.00
62708;BME280;48769;51.624;5.886;2024-01-27T05:57:06;103302.44;;;1.13;100.00
62708;BME280;48769;51.624;5.886;2024-01-27T05:59:32;103295.38;;;1.09;100.00
62708;BME280;48769;51.624;5.886;2024-01-27T06:01:57;103301.47;;;1.10;100.00
62708;BME280;48769;51.624;5.886;2024-01-27T06:04:23;103295.31;;;1.06;100.00
62708;BME280;48769;51.624;5.886;2024-01-27T06:06:48;103298.75;;;1.05;100.00
62708;BME280;48769;51.624;5.886;2024-01-27T06:09:13;103303.03;;;1.03;100.00
62708;BME280;48769;51.624;5.886;2024-01-27T06:11:39;103283.94;;;1.03;100.00
62708;BME280;48769;51.624;5.886;2024-01-27T06:14:04;103310.91;;;1.05;100.00
62708;BME280;48769;51.624;5.886;2024-01-27T06:16:30;103307.41;;;1.04;100.00
62708;BME280;48769;51.624;5.886;2024-01-27T06:18:55;103301.31;;;1.04;100.00
62708;BME280;48769;51.624;5.886;2024-01-27T06:21:21;103303.88;;;1.02;100.00
62708;BME280;48769;51.624;5.886;2024-01-27T06:23:46;103310.75;;;1.00;100.00
62708;BME280;48769;51.624;5.886;2024-01-27T06:26:13;103305.53;;;1.00;100.00
62708;BME280;48769;51.624;5.886;2024-01-27T06:28:38;103303.88;;;1.02;100.00
62708;BME280;48769;51.624;5.886;2024-01-27T06:31:04;103309.94;;;1.01;100.00
62708;BME280;48769;51.624;5.886;2024-01-27T06:33:29;103311.59;;;0.99;100.00
62708;BME280;48769;51.624;5.886;2024-01-27T06:35:55;103316.72;;;0.96;100.00
62708;BME280;48769;51.624;5.886;2024-01-27T06:38:20;103313.25;;;0.96;100.00
62708;BME280;48769;51.624;5.886;2024-01-27T06:40:45;103307.16;;;0.95;100.00
62708;BME280;48769;51.624;5.886;2024-01-27T06:43:12;103302.84;;;0.96;100.00
62708;BME280;48769;51.624;5.886;2024-01-27T06:45:38;103307.94;;;0.92;100.00
62708;BME280;48769;51.624;5.886;2024-01-27T06:48:04;103304.38;;;0.89;100.00
62708;BME280;48769;51.624;5.886;2024-01-27T06:50:30;103303.44;;;0.87;100.00
62708;BME280;48769;51.624;5.886;2024-01-27T06:52:55;103297.38;;;0.86;100.00
62708;BME280;48769;51.624;5.886;2024-01-27T06:55:20;103309.50;;;0.86;100.00
62708;BME280;48769;51.624;5.886;2024-01-27T06:57:46;103303.41;;;0.85;100.00
62708;BME280;48769;51.624;5.886;2024-01-27T07:00:13;103303.34;;;0.84;100.00
62708;BME280;48769;51.624;5.886;2024-01-27T07:02:39;103306.81;;;0.83;100.00
62708;BME280;48769;51.624;5.886;2024-01-27T07:05:05;103305.09;;;0.83;100.00
62708;BME280;48769;51.624;5.886;2024-01-27T07:07:31;103313.75;;;0.84;100.00
62708;BME280;48769;51.624;5.886;2024-01-27T07:09:57;103316.34;;;0.82;100.00
62708;BME280;48769;51.624;5.886;2024-01-27T07:12:23;103323.28;;;0.82;100.00
62708;BME280;48769;51.624;5.886;2024-01-27T07:14:48;103330.97;;;0.79;100.00
62708;BME280;48769;51.624;5.886;2024-01-27T07:17:14;103331.72;;;0.75;100.00
62708;BME280;48769;51.624;5.886;2024-01-27T07:19:40;103338.53;;;0.71;100.00
62708;BME280;48769;51.624;5.886;2024-01-27T07:22:05;103334.16;;;0.68;100.00
62708;BME280;48769;51.624;5.886;2024-01-27T07:24:30;103339.47;;;0.72;100.00
62708;BME280;48769;51.624;5.886;2024-01-27T07:26:56;103352.53;;;0.75;100.00
62708;BME280;48769;51.624;5.886;2024-01-27T07:29:23;103349.09;;;0.76;100.00
62708;BME280;48769;51.624;5.886;2024-01-27T07:31:49;103356.06;;;0.77;100.00
62708;BME280;48769;51.624;5.886;2024-01-27T07:34:15;103361.38;;;0.81;100.00
62708;BME280;48769;51.624;5.886;2024-01-27T07:36:40;103366.59;;;0.81;100.00
62708;BME280;48769;51.624;5.886;2024-01-27T07:39:05;103362.28;;;0.82;100.00
62708;BME280;48769;51.624;5.886;2024-01-27T07:41:31;103359.72;;;0.83;100.00
62708;BME280;48769;51.624;5.886;2024-01-27T07:43:57;103359.72;;;0.83;100.00
62708;BME280;48769;51.624;5.886;2024-01-27T07:46:22;103358.94;;;0.86;100.00
62708;BME280;48769;51.624;5.886;2024-01-27T07:48:51;103360.75;;;0.88;100.00
62708;BME280;48769;51.624;5.886;2024-01-27T07:51:17;103366.06;;;0.93;100.00
62708;BME280;48769;51.624;5.886;2024-01-27T07:53:43;103377.53;;;0.98;100.00
62708;BME280;48769;51.624;5.886;2024-01-27T07:56:08;103380.31;;;1.04;100.00
62708;BME280;48769;51.624;5.886;2024-01-27T07:58:36;103378.59;;;1.06;100.00
62708;BME280;48769;51.624;5.886;2024-01-27T08:01:02;103383.28;;;1.18;100.00
62708;BME280;48769;51.624;5.886;2024-01-27T08:03:30;103380.94;;;1.27;100.00
62708;BME280;48769;51.624;5.886;2024-01-27T08:05:55;103387.94;;;1.30;100.00
62708;BME280;48769;51.624;5.886;2024-01-27T08:08:21;103382.03;;;1.35;100.00
62708;BME280;48769;51.624;5.886;2024-01-27T08:10:46;103386.53;;;1.41;100.00
62708;BME280;48769;51.624;5.886;2024-01-27T08:13:11;103377.03;;;1.43;100.00
62708;BME280;48769;51.624;5.886;2024-01-27T08:15:37;103385.06;;;1.52;100.00
62708;BME280;48769;51.624;5.886;2024-01-27T08:18:02;103378.38;;;1.60;100.00
62708;BME280;48769;51.624;5.886;2024-01-27T08:20:28;103385.38;;;1.63;100.00
62708;BME280;48769;51.624;5.886;2024-01-27T08:22:53;103392.47;;;1.69;100.00
62708;BME280;48769;51.624;5.886;2024-01-27T08:25:18;103389.03;;;1.70;100.00
62708;BME280;48769;51.624;5.886;2024-01-27T08:27:44;103389.06;;;1.71;100.00
62708;BME280;48769;51.624;5.886;2024-01-27T08:30:09;103387.50;;;1.78;100.00
62708;BME280;48769;51.624;5.886;2024-01-27T08:32:35;103382.44;;;1.84;100.00
62708;BME280;48769;51.624;5.886;2024-01-27T08:35:00;103372.97;;;1.87;100.00
62708;BME280;48769;51.624;5.886;2024-01-27T08:37:26;103387.91;;;1.95;100.00
62708;BME280;48769;51.624;5.886;2024-01-27T08:39:51;103382.78;;;1.98;100.00
62708;BME280;48769;51.624;5.886;2024-01-27T08:42:16;103385.50;;;2.02;100.00
62708;BME280;48769;51.624;5.886;2024-01-27T08:44:42;103379.53;;;2.06;100.00
62708;BME280;48769;51.624;5.886;2024-01-27T08:47:07;103383.13;;;2.12;100.00
62708;BME280;48769;51.624;5.886;2024-01-27T08:49:36;103383.47;;;2.27;100.00
62708;BME280;48769;51.624;5.886;2024-01-27T08:52:01;103384.06;;;2.92;100.00
62708;BME280;48769;51.624;5.886;2024-01-27T08:54:27;103373.31;;;3.65;100.00
62708;BME280;48769;51.624;5.886;2024-01-27T08:56:52;103370.53;;;4.65;100.00
62708;BME280;48769;51.624;5.886;2024-01-27T08:59:17;103373.00;;;6.16;100.00
62708;BME280;48769;51.624;5.886;2024-01-27T09:01:42;103379.78;;;7.59;100.00
62708;BME280;48769;51.624;5.886;2024-01-27T09:04:11;103373.44;;;6.91;100.00
62708;BME280;48769;51.624;5.886;2024-01-27T09:06:38;103379.72;;;7.22;100.00
62708;BME280;48769;51.624;5.886;2024-01-27T09:09:04;103379.81;;;7.82;100.00
62708;BME280;48769;51.624;5.886;2024-01-27T09:11:29;103385.03;;;8.64;100.00
62708;BME280;48769;51.624;5.886;2024-01-27T09:13:56;103379.78;;;7.51;100.00
62708;BME280;48769;51.624;5.886;2024-01-27T09:16:21;103393.31;;;6.41;100.00
62708;BME280;48769;51.624;5.886;2024-01-27T09:18:46;103400.63;;;6.90;100.00
62708;BME280;48769;51.624;5.886;2024-01-27T09:21:12;103386.78;;;7.46;100.00
62708;BME280;48769;51.624;5.886;2024-01-27T09:23:37;103387.72;;;8.11;100.00
62708;BME280;48769;51.624;5.886;2024-01-27T09:26:03;103381.56;;;8.13;100.00
62708;BME280;48769;51.624;5.886;2024-01-27T09:28:29;103386.84;;;8.07;100.00
62708;BME280;48769;51.624;5.886;2024-01-27T09:30:54;103386.84;;;8.16;100.00
62708;BME280;48769;51.624;5.886;2024-01-27T09:33:19;103392.97;;;8.05;100.00
62708;BME280;48769;51.624;5.886;2024-01-27T09:35:48;103390.34;;;8.12;100.00
62708;BME280;48769;51.624;5.886;2024-01-27T09:38:14;103393.84;;;8.34;100.00
62708;BME280;48769;51.624;5.886;2024-01-27T09:40:40;103395.59;;;7.95;100.00
62708;BME280;48769;51.624;5.886;2024-01-27T09:43:05;103404.25;;;7.22;100.00
62708;BME280;48769;51.624;5.886;2024-01-27T09:45:31;103418.00;;;6.69;100.00
62708;BME280;48769;51.624;5.886;2024-01-27T09:47:59;103424.91;;;6.52;100.00
62708;BME280;48769;51.624;5.886;2024-01-27T09:50:25;103429.78;;;6.03;100.00
62708;BME280;48769;51.624;5.886;2024-01-27T09:52:51;103424.16;;;5.66;100.00
62708;BME280;48769;51.624;5.886;2024-01-27T09:55:16;103429.19;;;5.48;100.00
62708;BME280;48769;51.624;5.886;2024-01-27T09:57:44;103431.66;;;5.35;100.00
62708;BME280;48769;51.624;5.886;2024-01-27T10:00:11;103427.28;;;5.34;100.00
62708;BME280;48769;51.624;5.886;2024-01-27T10:02:42;103437.78;;;5.36;100.00
62708;BME280;48769;51.624;5.886;2024-01-27T10:05:10;103436.97;;;5.40;100.00
62708;BME280;48769;51.624;5.886;2024-01-27T10:07:36;103439.63;;;5.45;100.00
62708;BME280;48769;51.624;5.886;2024-01-27T10:10:01;103434.50;;;5.54;100.00
62708;BME280;48769;51.624;5.886;2024-01-27T10:12:28;103438.81;;;6.39;100.00
62708;BME280;48769;51.624;5.886;2024-01-27T10:14:54;103437.69;;;7.57;100.00
62708;BME280;48769;51.624;5.886;2024-01-27T10:17:23;103432.47;;;8.12;100.00
62708;BME280;48769;51.624;5.886;2024-01-27T10:20:11;103436.88;;;8.03;100.00
62708;BME280;48769;51.624;5.886;2024-01-27T10:22:39;103437.69;;;7.79;100.00
62708;BME280;48769;51.624;5.886;2024-01-27T10:25:05;103435.06;;;7.79;100.00
62708;BME280;48769;51.624;5.886;2024-01-27T10:27:31;103439.47;;;7.86;100.00
62708;BME280;48769;51.624;5.886;2024-01-27T10:29:56;103443.81;;;7.55;100.00
62708;BME280;48769;51.624;5.886;2024-01-27T10:32:22;103443.00;;;8.18;100.00
62708;BME280;48769;51.624;5.886;2024-01-27T10:35:02;103434.16;;;8.90;100.00
62708;BME280;48769;51.624;5.886;2024-01-27T10:37:28;103442.75;;;9.35;100.00
62708;BME280;48769;51.624;5.886;2024-01-27T10:40:04;103437.75;;;8.64;100.00
62708;BME280;48769;51.624;5.886;2024-01-27T10:42:33;103425.41;;;8.79;100.00
62708;BME280;48769;51.624;5.886;2024-01-27T10:44:59;103430.72;;;8.57;100.00
62708;BME280;48769;51.624;5.886;2024-01-27T10:47:28;103435.13;;;8.26;100.00
62708;BME280;48769;51.624;5.886;2024-01-27T10:49:58;103443.00;;;8.14;100.00
62708;BME280;48769;51.624;5.886;2024-01-27T10:52:28;103443.00;;;8.22;100.00
62708;BME280;48769;51.624;5.886;2024-01-27T10:55:04;103439.50;;;8.47;100.00
62708;BME280;48769;51.624;5.886;2024-01-27T10:57:36;103426.28;;;8.82;100.00
62708;BME280;48769;51.624;5.886;2024-01-27T11:00:04;103415.47;;;9.44;100.00
62708;BME280;48769;51.624;5.886;2024-01-27T11:02:36;103425.75;;;9.88;100.00
62708;BME280;48769;51.624;5.886;2024-01-27T11:05:04;103419.53;;;9.95;100.00
62708;BME280;48769;51.624;5.886;2024-01-27T11:07:32;103412.69;;;9.67;100.00
62708;BME280;48769;51.624;5.886;2024-01-27T11:09:58;103409.34;;;9.35;100.00
62708;BME280;48769;51.624;5.886;2024-01-27T11:12:24;103402.47;;;9.02;100.00
62708;BME280;48769;51.624;5.886;2024-01-27T11:14:51;103413.03;;;8.96;100.00
62708;BME280;48769;51.624;5.886;2024-01-27T11:17:17;103407.75;;;9.02;100.00
62708;BME280;48769;51.624;5.886;2024-01-27T11:19:42;103409.47;;;9.03;100.00
62708;BME280;48769;51.624;5.886;2024-01-27T11:22:23;103393.59;;;9.19;100.00
62708;BME280;48769;51.624;5.886;2024-01-27T11:24:50;103400.69;;;9.13;100.00
62708;BME280;48769;51.624;5.886;2024-01-27T11:27:15;103391.09;;;8.89;100.00
62708;BME280;48769;51.624;5.886;2024-01-27T11:29:47;103395.50;;;8.83;100.00
62708;BME280;48769;51.624;5.886;2024-01-27T11:32:12;103398.13;;;8.92;100.00
62708;BME280;48769;51.624;5.886;2024-01-27T11:34:45;103388.41;;;9.03;100.00
62708;BME280;48769;51.624;5.886;2024-01-27T11:37:15;103385.63;;;9.29;100.00
62708;BME280;48769;51.624;5.886;2024-01-27T11:39:40;103380.63;;;10.16;100.00
62708;BME280;48769;51.624;5.886;2024-01-27T11:42:10;103383.56;;;10.76;100.00
62708;BME280;48769;51.624;5.886;2024-01-27T11:44:40;103377.44;;;11.37;100.00
62708;BME280;48769;51.624;5.886;2024-01-27T11:47:14;103364.53;;;11.73;100.00
62708;BME280;48769;51.624;5.886;2024-01-27T11:49:42;103365.19;;;11.90;100.00
62708;BME280;48769;51.624;5.886;2024-01-27T11:52:07;103372.94;;;12.03;100.00
62708;BME280;48769;51.624;5.886;2024-01-27T11:54:32;103376.31;;;12.11;100.00
62708;BME280;48769;51.624;5.886;2024-01-27T11:56:58;103368.59;;;12.47;100.00
62708;BME280;48769;51.624;5.886;2024-01-27T11:59:23;103368.41;;;12.09;100.00
62708;BME280;48769;51.624;5.886;2024-01-27T12:01:49;103373.69;;;11.54;100.00
62708;BME280;48769;51.624;5.886;2024-01-27T12:04:14;103373.44;;;11.07;100.00
62708;BME280;48769;51.624;5.886;2024-01-27T12:06:41;103375.13;;;11.14;100.00
62708;BME280;48769;51.624;5.886;2024-01-27T12:09:07;103365.00;;;11.45;100.00
62708;BME280;48769;51.624;5.886;2024-01-27T12:11:38;103358.88;;;11.98;100.00
62708;BME280;48769;51.624;5.886;2024-01-27T12:14:05;103348.19;;;12.50;100.00
62708;BME280;48769;51.624;5.886;2024-01-27T12:16:31;103348.81;;;13.06;100.00
62708;BME280;48769;51.624;5.886;2024-01-27T12:18:57;103340.28;;;13.70;100.00
62708;BME280;48769;51.624;5.886;2024-01-27T12:21:22;103346.75;;;14.61;100.00
62708;BME280;48769;51.624;5.886;2024-01-27T12:23:53;103331.22;;;15.06;100.00
62708;BME280;48769;51.624;5.886;2024-01-27T12:26:26;103327.19;;;15.49;100.00
62708;BME280;48769;51.624;5.886;2024-01-27T12:28:51;103327.84;;;15.84;95.07
62708;BME280;48769;51.624;5.886;2024-01-27T12:31:17;103329.06;;;16.00;89.60
62708;BME280;48769;51.624;5.886;2024-01-27T12:33:56;103319.19;;;16.27;84.16
62708;BME280;48769;51.624;5.886;2024-01-27T12:36:24;103319.38;;;16.23;85.63
62708;BME280;48769;51.624;5.886;2024-01-27T12:39:00;103319.22;;;15.76;77.21
62708;BME280;48769;51.624;5.886;2024-01-27T12:41:28;103326.81;;;15.88;82.17
62708;BME280;48769;51.624;5.886;2024-01-27T12:43:55;103330.22;;;15.67;81.76
62708;BME280;48769;51.624;5.886;2024-01-27T12:46:20;103329.16;;;15.97;86.30